createdAt,value
2019-04-27T00:00:58.618Z,29.80
2019-04-27T00:03:46.304Z,29.80
2019-04-27T00:06:18.516Z,29.80
2019-04-27T00:11:45.778Z,29.80
2019-04-27T00:14:18.100Z,29.90
2019-04-27T00:16:53.623Z,29.90
2019-04-27T00:19:27.296Z,29.90
2019-04-27T00:22:07.763Z,29.90
2019-04-27T00:31:53.365Z,30.00
2019-04-27T00:42:10.910Z,30.10
2019-04-27T00:44:45.083Z,30.10
2019-04-27T00:47:16.013Z,30.20
2019-04-27T00:49:46.872Z,30.40
2019-04-27T00:52:17.511Z,30.40
2019-04-27T00:54:48.138Z,30.40
2019-04-27T00:57:24.525Z,30.40
2019-04-27T01:00:13.467Z,30.50
2019-04-27T01:02:45.981Z,30.50
2019-04-27T01:05:20.948Z,30.60
2019-04-27T01:07:53.625Z,30.60
2019-04-27T01:10:24.539Z,30.70
2019-04-27T01:12:55.439Z,30.70
2019-04-27T01:15:26.098Z,30.80
2019-04-27T01:18:09.283Z,30.80
2019-04-27T01:20:30.192Z,30.80
2019-04-27T01:23:00.991Z,30.80
2019-04-27T01:25:36.175Z,30.90
2019-04-27T01:28:26.604Z,31.00
2019-04-27T01:30:58.875Z,31.00
2019-04-27T01:33:30.884Z,31.10
2019-04-27T01:36:01.508Z,31.10
2019-04-27T01:38:32.422Z,31.10
2019-04-27T01:41:03.183Z,31.10
2019-04-27T01:43:33.911Z,31.30
2019-04-27T01:46:04.808Z,31.30
2019-04-27T01:48:35.870Z,31.30
2019-04-27T01:51:06.799Z,31.40
2019-04-27T01:53:38.894Z,31.40
2019-04-27T01:56:30.023Z,31.40
2019-04-27T01:59:00.799Z,31.60
2019-04-27T02:01:35.766Z,31.50
2019-04-27T02:04:19.214Z,31.60
2019-04-27T02:06:51.271Z,31.60
2019-04-27T02:09:23.766Z,31.60
2019-04-27T02:11:54.858Z,31.60
2019-04-27T02:14:25.599Z,31.70
2019-04-27T02:16:56.487Z,31.70
2019-04-27T02:19:29.149Z,31.70
2019-04-27T02:21:59.864Z,31.70
2019-04-27T02:24:30.588Z,31.70
2019-04-27T02:27:01.242Z,31.70
2019-04-27T02:29:36.516Z,31.80
2019-04-27T02:32:10.442Z,31.80
2019-04-27T02:34:50.481Z,31.80
2019-04-27T02:37:20.907Z,31.80
2019-04-27T02:39:51.889Z,31.80
2019-04-27T02:42:24.713Z,31.80
2019-04-27T02:44:55.582Z,31.90
2019-04-27T02:47:26.237Z,31.90
2019-04-27T02:49:57.332Z,32.10
2019-04-27T02:52:40.430Z,32.10
2019-04-27T02:55:10.784Z,32.20
2019-04-27T02:57:41.803Z,32.20
2019-04-27T03:00:14.402Z,32.30
2019-04-27T03:02:46.798Z,32.40
2019-04-27T03:05:22.970Z,32.50
2019-04-27T03:08:13.010Z,32.60
2019-04-27T03:10:43.765Z,32.60
2019-04-27T03:13:16.224Z,32.60
2019-04-27T03:15:49.657Z,32.70
2019-04-27T03:18:22.076Z,32.80
2019-04-27T03:20:57.125Z,32.80
2019-04-27T03:23:30.290Z,32.90
2019-04-27T03:26:10.554Z,33.00
2019-04-27T03:28:40.451Z,33.00
2019-04-27T03:31:13.625Z,33.00
2019-04-27T03:33:43.516Z,33.00
2019-04-27T03:36:14.279Z,33.00
2019-04-27T03:38:44.926Z,33.00
2019-04-27T03:41:15.636Z,33.00
2019-04-27T03:43:46.376Z,33.00
2019-04-27T03:46:17.251Z,33.10
2019-04-27T03:48:49.736Z,33.20
2019-04-27T03:51:22.235Z,33.30
2019-04-27T03:54:00.163Z,33.40
2019-04-27T03:56:31.597Z,33.40
2019-04-27T03:59:03.740Z,33.40
2019-04-27T04:01:34.600Z,33.40
2019-04-27T04:04:05.357Z,33.40
2019-04-27T04:06:36.160Z,33.40
2019-04-27T04:09:10.102Z,33.40
2019-04-27T04:11:42.671Z,33.50
2019-04-27T04:14:21.527Z,33.50
2019-04-27T04:16:53.796Z,33.60
2019-04-27T04:19:24.532Z,33.60
2019-04-27T04:21:55.522Z,33.70
2019-04-27T04:24:28.533Z,33.70
2019-04-27T04:26:59.936Z,33.80
2019-04-27T04:29:30.869Z,33.80
2019-04-27T04:32:01.613Z,33.80
2019-04-27T04:34:32.326Z,33.80
2019-04-27T04:37:03.233Z,33.90
2019-04-27T04:39:35.395Z,33.90
2019-04-27T04:42:11.004Z,34.00
2019-04-27T04:44:43.141Z,34.00
2019-04-27T04:47:15.470Z,33.90
2019-04-27T04:49:46.244Z,34.10
2019-04-27T04:52:19.552Z,34.10
2019-04-27T04:54:49.635Z,34.10
2019-04-27T04:57:21.893Z,34.20
2019-04-27T04:59:52.849Z,34.20
2019-04-27T05:02:23.562Z,34.20
2019-04-27T05:04:54.478Z,34.30
2019-04-27T05:07:25.242Z,34.30
2019-04-27T05:09:56.124Z,34.30
2019-04-27T05:12:28.659Z,34.30
2019-04-27T05:14:59.271Z,34.40
2019-04-27T05:17:30.230Z,34.40
2019-04-27T05:20:02.255Z,34.40
2019-04-27T05:22:33.010Z,34.40
2019-04-27T05:25:03.924Z,34.40
2019-04-27T05:27:34.567Z,34.50
2019-04-27T05:30:06.308Z,34.50
2019-04-27T05:32:39.358Z,34.50
2019-04-27T05:35:10.176Z,34.60
2019-04-27T05:37:41.054Z,34.60
2019-04-27T05:40:11.815Z,34.60
2019-04-27T05:42:42.542Z,34.70
2019-04-27T05:45:19.910Z,34.60
2019-04-27T05:48:02.040Z,34.60
2019-04-27T05:50:58.837Z,34.60
2019-04-27T05:53:24.396Z,34.60
2019-04-27T05:55:55.288Z,34.60
2019-04-27T05:58:25.960Z,34.70
2019-04-27T06:00:56.683Z,34.80
2019-04-27T06:03:29.454Z,34.70
2019-04-27T06:06:01.746Z,34.80
2019-04-27T06:08:31.942Z,34.80
2019-04-27T06:11:02.611Z,34.80
2019-04-27T06:13:33.327Z,34.90
2019-04-27T06:16:04.530Z,34.90
2019-04-27T06:18:35.184Z,34.90
2019-04-27T06:21:05.925Z,34.90
2019-04-27T06:23:36.808Z,35.00
2019-04-27T06:26:11.400Z,35.10
2019-04-27T06:28:39.877Z,35.00
2019-04-27T06:31:10.910Z,35.00
2019-04-27T06:33:41.575Z,35.00
2019-04-27T06:36:12.299Z,35.00
2019-04-27T06:38:43.198Z,35.10
2019-04-27T06:41:13.862Z,35.20
2019-04-27T06:43:44.599Z,35.20
2019-04-27T06:46:16.222Z,35.10
2019-04-27T06:48:46.922Z,35.10
2019-04-27T06:51:19.484Z,35.10
2019-04-27T06:53:49.951Z,35.10
2019-04-27T06:56:21.088Z,35.20
2019-04-27T06:58:51.731Z,35.20
2019-04-27T07:01:22.545Z,35.20
2019-04-27T07:03:53.225Z,35.20
2019-04-27T07:06:23.936Z,35.20
2019-04-27T07:09:15.055Z,35.20
2019-04-27T07:11:45.766Z,35.20
2019-04-27T07:14:16.497Z,35.30
2019-04-27T07:16:48.829Z,35.30
2019-04-27T07:19:19.835Z,35.20
2019-04-27T07:21:50.484Z,35.20
2019-04-27T07:24:21.346Z,35.20
2019-04-27T07:26:52.059Z,35.20
2019-04-27T07:29:26.842Z,35.10
2019-04-27T07:31:59.493Z,34.90
2019-04-27T07:34:30.552Z,34.90
2019-04-27T07:37:21.611Z,34.90
2019-04-27T07:39:52.305Z,34.70
2019-04-27T07:42:23.754Z,34.60
2019-04-27T07:44:56.056Z,34.60
2019-04-27T07:47:33.089Z,34.50
2019-04-27T07:50:03.985Z,34.40
2019-04-27T07:52:34.739Z,34.40
2019-04-27T07:55:05.471Z,34.30
2019-04-27T07:57:36.925Z,34.30
2019-04-27T08:00:10.873Z,34.30
2019-04-27T08:02:41.579Z,34.10
2019-04-27T08:05:12.401Z,34.00
2019-04-27T08:07:43.203Z,34.00
2019-04-27T08:10:13.982Z,34.00
2019-04-27T08:12:44.667Z,33.80
2019-04-27T08:15:15.484Z,33.80
2019-04-27T08:17:49.271Z,33.80
2019-04-27T08:20:21.210Z,33.70
2019-04-27T08:22:52.266Z,33.70
2019-04-27T08:25:24.280Z,33.60
2019-04-27T08:28:00.323Z,33.60
2019-04-27T08:30:39.395Z,33.60
2019-04-27T08:33:14.407Z,33.50
2019-04-27T08:35:45.199Z,33.50
2019-04-27T08:38:19.047Z,33.40
2019-04-27T08:40:50.619Z,33.40
2019-04-27T08:43:21.082Z,33.30
2019-04-27T08:45:51.964Z,33.30
2019-04-27T08:48:33.755Z,33.30
2019-04-27T08:50:55.025Z,33.30
2019-04-27T08:53:25.815Z,33.30
2019-04-27T08:55:56.713Z,33.30
2019-04-27T08:58:28.619Z,33.40
2019-04-27T09:00:59.487Z,33.30
2019-04-27T09:06:11.303Z,33.40
2019-04-27T09:08:43.577Z,33.40
2019-04-27T09:11:21.574Z,33.40
2019-04-27T09:13:53.538Z,33.40
2019-04-27T09:16:31.113Z,33.50
2019-04-27T09:19:06.607Z,33.50
2019-04-27T09:21:55.236Z,33.50
2019-04-27T09:24:26.136Z,33.50
2019-04-27T09:26:56.616Z,33.50
2019-04-27T09:29:27.024Z,33.50
2019-04-27T09:31:59.542Z,33.50
2019-04-27T09:34:30.790Z,33.50
2019-04-27T09:37:01.452Z,33.60
2019-04-27T09:39:48.939Z,33.70
2019-04-27T09:42:19.715Z,33.70
2019-04-27T09:44:50.520Z,33.60
2019-04-27T09:47:21.250Z,33.70
2019-04-27T09:49:52.036Z,33.80
2019-04-27T09:52:26.280Z,33.70
2019-04-27T09:54:55.946Z,33.60
2019-04-27T09:57:26.762Z,33.50
2019-04-27T10:00:06.372Z,33.50
2019-04-27T10:02:43.183Z,33.40
2019-04-27T10:05:15.326Z,33.30
2019-04-27T10:07:47.462Z,33.30
2019-04-27T10:10:17.780Z,33.20
2019-04-27T10:12:53.168Z,33.20
2019-04-27T10:15:23.551Z,33.20
2019-04-27T10:17:56.036Z,33.20
2019-04-27T10:20:26.315Z,33.10
2019-04-27T10:23:06.290Z,33.10
2019-04-27T10:25:37.637Z,33.20
2019-04-27T10:28:08.084Z,33.10
2019-04-27T10:30:38.506Z,33.10
2019-04-27T10:33:09.107Z,33.10
2019-04-27T10:35:39.617Z,33.00
2019-04-27T10:38:10.029Z,33.00
2019-04-27T10:40:40.804Z,32.90
2019-04-27T10:43:12.967Z,32.90
2019-04-27T10:45:43.689Z,32.90
2019-04-27T10:48:14.238Z,32.90
2019-04-27T10:50:44.626Z,32.90
2019-04-27T10:53:16.804Z,32.90
2019-04-27T10:55:47.196Z,32.90
2019-04-27T10:58:18.019Z,32.90
2019-04-27T11:00:53.837Z,32.80
2019-04-27T11:03:29.014Z,32.80
2019-04-27T11:06:16.072Z,32.70
2019-04-27T11:08:48.352Z,32.70
2019-04-27T11:11:19.211Z,32.70
2019-04-27T11:13:49.755Z,32.70
2019-04-27T11:16:20.213Z,32.70
2019-04-27T11:18:52.988Z,32.60
2019-04-27T11:21:23.420Z,32.50
2019-04-27T11:23:55.791Z,32.50
2019-04-27T11:26:26.330Z,32.50
2019-04-27T11:28:56.948Z,32.60
2019-04-27T11:31:27.372Z,32.50
2019-04-27T11:33:58.380Z,32.40
2019-04-27T11:36:35.526Z,32.40
2019-04-27T11:39:07.833Z,32.40
2019-04-27T11:41:38.546Z,32.30
2019-04-27T11:44:08.935Z,32.30
2019-04-27T11:46:39.616Z,32.20
2019-04-27T11:49:10.355Z,32.20
2019-04-27T11:51:40.840Z,32.20
2019-04-27T11:54:11.435Z,32.20
2019-04-27T11:56:42.023Z,32.20
2019-04-27T11:59:12.424Z,32.20
2019-04-27T12:01:43.494Z,32.20
2019-04-27T12:04:16.003Z,32.20
2019-04-27T12:06:58.517Z,32.30
2019-04-27T12:09:29.311Z,32.20
2019-04-27T12:12:12.693Z,32.10
2019-04-27T12:21:46.259Z,32.00
2019-04-27T12:24:17.941Z,32.10
2019-04-27T12:26:49.817Z,32.00
2019-04-27T12:29:21.782Z,31.90
2019-04-27T12:31:52.194Z,32.00
2019-04-27T12:34:22.587Z,32.00
2019-04-27T12:36:53.468Z,32.00
2019-04-27T12:39:24.307Z,32.00
2019-04-27T12:41:56.034Z,31.90
2019-04-27T12:44:26.913Z,31.80
2019-04-27T12:47:02.277Z,31.80
2019-04-27T12:49:30.920Z,31.90
2019-04-27T12:52:01.798Z,31.90
2019-04-27T12:54:33.926Z,31.90
2019-04-27T12:57:06.109Z,32.00
2019-04-27T12:59:56.526Z,31.90
2019-04-27T13:02:35.562Z,31.80
2019-04-27T13:05:08.153Z,31.80
2019-04-27T13:07:38.589Z,31.90
2019-04-27T13:10:09.322Z,31.90
2019-04-27T13:12:39.714Z,31.90
2019-04-27T13:15:11.118Z,31.80
2019-04-27T13:17:41.676Z,31.70
2019-04-27T13:20:12.340Z,31.80
2019-04-27T13:22:42.772Z,31.90
2019-04-27T13:25:14.035Z,31.90
2019-04-27T13:27:44.509Z,31.80
2019-04-27T13:30:16.422Z,31.70
2019-04-27T13:32:47.082Z,31.70
2019-04-27T13:35:17.489Z,31.70
2019-04-27T13:37:48.065Z,31.60
2019-04-27T13:40:20.299Z,31.60
2019-04-27T13:42:57.250Z,31.70
2019-04-27T13:45:43.866Z,31.60
2019-04-27T13:48:18.852Z,31.60
2019-04-27T13:53:28.647Z,31.60
2019-04-27T13:56:00.835Z,31.60
2019-04-27T13:58:31.751Z,31.60
2019-04-27T14:01:02.639Z,31.50
2019-04-27T14:03:35.634Z,31.50
2019-04-27T14:06:07.705Z,31.50
2019-04-27T14:08:38.271Z,31.50
2019-04-27T14:11:12.783Z,31.40
2019-04-27T14:13:43.181Z,31.50
2019-04-27T14:16:13.803Z,31.50
2019-04-27T14:18:44.383Z,31.50
2019-04-27T14:21:16.182Z,31.50
2019-04-27T14:24:07.300Z,31.50
2019-04-27T14:26:38.667Z,31.60
2019-04-27T14:29:10.303Z,31.50
2019-04-27T14:31:40.888Z,31.50
2019-04-27T14:34:11.419Z,31.50
2019-04-27T14:36:42.029Z,31.40
2019-04-27T14:39:13.638Z,31.50
2019-04-27T14:41:44.329Z,31.50
2019-04-27T14:44:14.952Z,31.40
2019-04-27T14:46:45.916Z,31.50
2019-04-27T14:49:18.194Z,31.40
2019-04-27T14:51:50.035Z,31.40
2019-04-27T14:54:20.541Z,31.40
2019-04-27T14:56:51.307Z,31.40
2019-04-27T14:59:22.217Z,31.40
2019-04-27T15:01:53.140Z,31.30
2019-04-27T15:04:24.272Z,31.30
2019-04-27T15:06:55.570Z,31.30
2019-04-27T15:09:26.379Z,31.20
2019-04-27T15:11:57.004Z,31.40
2019-04-27T15:14:27.670Z,31.30
2019-04-27T15:16:59.261Z,31.30
2019-04-27T15:19:31.896Z,31.30
2019-04-27T15:22:02.420Z,31.40
2019-04-27T15:24:32.831Z,31.30
2019-04-27T15:27:03.949Z,31.30
2019-04-27T15:29:34.750Z,31.30
2019-04-27T15:32:09.443Z,31.30
2019-04-27T15:34:44.263Z,31.30
2019-04-27T15:37:19.812Z,31.30
2019-04-27T15:40:07.017Z,31.30
2019-04-27T15:42:34.036Z,31.30
2019-04-27T15:45:04.904Z,31.20
2019-04-27T15:47:35.629Z,31.20
2019-04-27T15:50:08.397Z,31.20
2019-04-27T15:52:38.988Z,31.10
2019-04-27T15:55:31.081Z,31.10
2019-04-27T15:57:42.615Z,31.10
2019-04-27T16:00:20.481Z,31.20
2019-04-27T16:02:49.294Z,31.20
2019-04-27T16:05:23.518Z,31.10
2019-04-27T16:07:53.350Z,31.10
2019-04-27T16:10:24.022Z,31.20
2019-04-27T16:13:05.777Z,31.20
2019-04-27T16:15:27.883Z,31.10
2019-04-27T16:17:59.206Z,31.10
2019-04-27T16:20:33.745Z,31.10
2019-04-27T16:23:03.478Z,31.20
2019-04-27T16:25:46.101Z,31.20
2019-04-27T16:28:11.570Z,31.20
2019-04-27T16:30:39.319Z,31.00
2019-04-27T16:33:09.998Z,31.00
2019-04-27T16:35:40.715Z,31.00
2019-04-27T16:38:33.436Z,31.00
2019-04-27T16:41:21.444Z,31.10
2019-04-27T16:43:52.295Z,31.10
2019-04-27T16:46:22.919Z,31.00
2019-04-27T16:49:15.076Z,31.00
2019-04-27T16:51:46.111Z,30.90
2019-04-27T16:54:19.918Z,31.00
2019-04-27T16:56:53.048Z,31.00
2019-04-27T16:59:39.684Z,31.00
2019-04-27T17:01:53.678Z,30.90
2019-04-27T17:04:24.291Z,31.00
2019-04-27T17:06:55.491Z,31.10
2019-04-27T17:09:26.376Z,31.00
2019-04-27T17:11:59.260Z,31.00
2019-04-27T17:14:46.408Z,31.00
2019-04-27T17:17:28.281Z,31.00
2019-04-27T17:20:00.783Z,31.00
2019-04-27T17:22:31.570Z,31.00
2019-04-27T17:25:02.311Z,31.00
2019-04-27T17:27:34.551Z,31.10
2019-04-27T17:30:08.897Z,31.00
2019-04-27T17:32:44.183Z,31.00
2019-04-27T17:35:15.175Z,31.00
2019-04-27T17:37:45.979Z,31.00
2019-04-27T17:40:16.984Z,31.00
2019-04-27T17:42:48.162Z,30.90
2019-04-27T17:45:21.532Z,30.90
2019-04-27T17:47:51.363Z,30.90
2019-04-27T17:50:25.022Z,30.90
2019-04-27T17:52:55.528Z,30.90
2019-04-27T17:55:27.836Z,30.80
2019-04-27T17:58:04.987Z,30.90
2019-04-27T18:00:32.912Z,30.90
2019-04-27T18:03:03.288Z,30.90
2019-04-27T18:05:34.020Z,30.80
2019-04-27T18:08:05.271Z,30.80
2019-04-27T18:10:35.964Z,30.90
2019-04-27T18:13:08.505Z,30.90
2019-04-27T18:15:38.906Z,30.70
2019-04-27T18:18:11.114Z,30.70
2019-04-27T18:20:41.592Z,30.80
2019-04-27T18:23:15.048Z,30.90
2019-04-27T18:26:05.819Z,30.80
2019-04-27T18:28:38.651Z,30.80
2019-04-27T18:31:11.573Z,30.80
2019-04-27T18:34:02.247Z,30.90
2019-04-27T18:36:32.912Z,30.70
2019-04-27T18:39:05.600Z,30.70
2019-04-27T18:41:37.690Z,30.80
2019-04-27T18:44:08.735Z,30.90
2019-04-27T18:46:40.185Z,30.80
2019-04-27T18:49:15.374Z,30.70
2019-04-27T18:51:48.333Z,30.70
2019-04-27T18:54:19.250Z,30.80
2019-04-27T18:57:01.708Z,30.70
2019-04-27T18:59:22.198Z,30.70
2019-04-27T19:01:52.840Z,30.70
2019-04-27T19:04:23.572Z,30.70
2019-04-27T19:06:54.462Z,30.70
2019-04-27T19:09:25.503Z,30.80
2019-04-27T19:11:56.698Z,30.80
2019-04-27T19:14:28.252Z,30.80
2019-04-27T19:16:59.119Z,30.70
2019-04-27T19:19:29.861Z,30.70
2019-04-27T19:22:00.732Z,30.70
2019-04-27T19:24:31.409Z,30.70
2019-04-27T19:30:18.952Z,30.70
2019-04-27T19:32:50.411Z,30.60
2019-04-27T19:35:21.074Z,30.60
2019-04-27T19:37:51.808Z,30.60
2019-04-27T19:40:22.700Z,30.60
2019-04-27T19:42:53.374Z,30.60
2019-04-27T19:45:24.057Z,30.60
2019-04-27T19:47:55.074Z,30.50
2019-04-27T19:50:25.751Z,30.60
2019-04-27T19:52:56.447Z,30.60
2019-04-27T19:55:28.201Z,30.60
2019-04-27T19:58:01.464Z,30.60
2019-04-27T20:00:42.171Z,30.50
2019-04-27T20:03:14.305Z,30.50
2019-04-27T20:05:45.156Z,30.40
2019-04-27T20:08:20.478Z,30.50
2019-04-27T20:10:51.779Z,30.40
2019-04-27T20:13:22.459Z,30.50
2019-04-27T20:15:53.195Z,30.50
2019-04-27T20:18:23.981Z,30.50
2019-04-27T20:20:54.661Z,30.50
2019-04-27T20:23:25.388Z,30.40
2019-04-27T20:25:56.270Z,30.50
2019-04-27T20:28:28.280Z,30.40
2019-04-27T20:30:58.838Z,30.40
2019-04-27T20:33:49.675Z,30.50
2019-04-27T20:36:21.406Z,30.50
2019-04-27T20:38:51.922Z,30.50
2019-04-27T20:41:22.794Z,30.50
2019-04-27T20:43:53.472Z,30.60
2019-04-27T20:46:24.187Z,30.60
2019-04-27T20:48:55.172Z,30.50
2019-04-27T20:51:47.232Z,30.50
2019-04-27T20:54:15.652Z,30.40
2019-04-27T20:57:06.433Z,30.40
2019-04-27T20:59:37.222Z,30.40
2019-04-27T21:02:25.641Z,30.40
2019-04-27T21:04:58.042Z,30.30
2019-04-27T21:07:42.562Z,30.20
2019-04-27T21:10:13.723Z,30.30
2019-04-27T21:12:44.936Z,30.30
2019-04-27T21:15:15.692Z,30.40
2019-04-27T21:17:46.598Z,30.30
2019-04-27T21:20:17.323Z,30.30
2019-04-27T21:22:48.075Z,30.20
2019-04-27T21:25:18.952Z,30.30
2019-04-27T21:27:51.354Z,30.20
2019-04-27T21:30:21.904Z,30.20
2019-04-27T21:32:52.847Z,30.20
2019-04-27T21:35:23.708Z,30.30
2019-04-27T21:37:55.104Z,30.20
2019-04-27T21:40:25.754Z,30.30
2019-04-27T21:42:56.469Z,30.20
2019-04-27T21:45:27.382Z,30.20
2019-04-27T21:47:58.150Z,30.20
2019-04-27T21:50:28.874Z,30.20
2019-04-27T21:53:04.442Z,30.30
2019-04-27T21:55:39.364Z,30.30
2019-04-27T21:58:11.557Z,30.20
2019-04-27T22:00:43.779Z,30.20
2019-04-27T22:03:16.094Z,30.20
2019-04-27T22:05:46.890Z,30.20
2019-04-27T22:08:17.633Z,30.30
2019-04-27T22:10:48.499Z,30.20
2019-04-27T22:13:22.207Z,30.20
2019-04-27T22:15:51.706Z,30.20
2019-04-27T22:18:22.594Z,30.20
2019-04-27T22:20:53.269Z,30.20
2019-04-27T22:23:34.793Z,30.20
2019-04-27T22:26:05.522Z,30.10
2019-04-27T22:28:46.218Z,30.10
2019-04-27T22:31:08.562Z,30.10
2019-04-27T22:33:42.723Z,30.20
2019-04-27T22:36:11.484Z,30.20
2019-04-27T22:38:42.323Z,30.10
2019-04-27T22:41:21.391Z,30.10
2019-04-27T22:44:01.314Z,30.10
2019-04-27T22:46:33.235Z,30.00
2019-04-27T22:49:04.060Z,30.10
2019-04-27T22:51:34.849Z,30.00
2019-04-27T22:54:05.515Z,30.00
2019-04-27T22:56:36.499Z,30.10
2019-04-27T22:59:25.321Z,30.00
2019-04-27T23:02:01.427Z,30.00
2019-04-27T23:04:36.567Z,30.00
2019-04-27T23:07:07.740Z,30.00
2019-04-27T23:09:38.501Z,30.00
2019-04-27T23:12:09.540Z,30.00
2019-04-27T23:14:41.473Z,30.00
2019-04-27T23:17:19.785Z,30.00
2019-04-27T23:19:51.008Z,30.00
2019-04-27T23:22:21.879Z,30.00
2019-04-27T23:24:52.623Z,30.00
2019-04-27T23:27:23.490Z,30.00
2019-04-27T23:29:54.162Z,30.00
2019-04-27T23:32:41.611Z,30.00
2019-04-27T23:35:12.476Z,30.00
2019-04-27T23:37:43.919Z,30.00
2019-04-27T23:40:15.264Z,30.00
2019-04-27T23:42:45.955Z,30.00
2019-04-27T23:45:16.695Z,30.00
2019-04-27T23:47:47.568Z,30.00
2019-04-27T23:50:18.249Z,30.00
2019-04-27T23:52:53.556Z,30.10
2019-04-27T23:55:25.892Z,30.10
2019-04-27T23:57:56.810Z,30.20
